Time;durP1;ratioP1;P1;durP2;ratioP2;P2;SDS_P1;SDS_P2;PMS_P1;PMS_P2;Temp;Humidity;BMP_temperature;BMP_pressure;BME280_temperature;BME280_humidity;BME280_pressure;Samples;Min_cycle;Max_cycle;Signal;HPM_P1;HPM_P2
2023/08/29 00:03:28;;;;;;;8.80;8.00;;;;;;;18.28;71.68;98914.31;218016;1256;139136;-68
2023/08/29 00:08:34;;;;;;;8.40;7.60;;;;;;;18.26;71.78;98902.00;217805;1255;139994;-69
2023/08/29 00:13:38;;;;;;;8.70;7.90;;;;;;;18.22;71.85;98896.86;219280;1256;139902;-69
2023/08/29 00:18:43;;;;;;;9.10;8.00;;;;;;;18.16;72.02;98898.02;218365;1256;140108;-70
2023/08/29 00:23:49;;;;;;;8.10;7.40;;;;;;;18.14;72.14;98883.76;217666;1256;141164;-69
2023/08/29 00:28:53;;;;;;;14.30;8.90;;;;;;;18.11;72.18;98885.60;218887;1254;140124;-68
2023/08/29 00:33:57;;;;;;;9.20;8.30;;;;;;;18.09;72.39;98895.02;218156;1256;139999;-68
2023/08/29 00:39:00;;;;;;;8.90;7.90;;;;;;;18.03;72.43;98898.80;217961;1259;139980;-69
2023/08/29 00:44:05;;;;;;;12.80;9.60;;;;;;;17.97;72.71;98902.61;218892;1256;140516;-68
2023/08/29 00:49:09;;;;;;;9.40;8.40;;;;;;;17.93;72.72;98925.56;218596;1257;140484;-68
2023/08/29 00:54:17;;;;;;;9.90;8.50;;;;;;;17.88;72.72;98964.53;217912;1257;139646;-67
2023/08/29 00:59:21;;;;;;;8.10;7.10;;;;;;;17.85;72.66;98964.55;219867;1255;139543;-67
2023/08/29 01:04:24;;;;;;;13.50;10.10;;;;;;;17.74;72.92;98941.80;218108;1254;139415;-68
2023/08/29 01:09:28;;;;;;;8.80;7.90;;;;;;;17.55;73.57;98930.88;219993;1257;141197;-68
2023/08/29 01:14:59;;;;;;;10.20;9.10;;;;;;;17.32;74.32;98912.48;218429;1256;139375;-67
2023/08/29 01:20:05;;;;;;;12.40;9.30;;;;;;;17.09;74.90;98925.34;218557;1256;140455;-67
2023/08/29 01:25:43;;;;;;;9.60;8.40;;;;;;;16.89;75.56;98930.07;217854;1255;142407;-66
2023/08/29 01:30:47;;;;;;;11.10;7.90;;;;;;;16.68;76.12;98910.77;219047;1254;139876;-67
2023/08/29 01:35:50;;;;;;;9.20;8.30;;;;;;;16.52;76.78;98887.50;218094;1259;140687;-67
2023/08/29 01:40:53;;;;;;;10.60;8.80;;;;;;;16.36;77.17;98869.40;219294;1254;140254;-69
2023/08/29 01:45:56;;;;;;;11.10;10.10;;;;;;;16.19;77.76;98842.88;218062;1254;139939;-71
2023/08/29 01:51:00;;;;;;;9.40;7.80;;;;;;;16.06;78.28;98827.98;218163;1256;140390;-71
2023/08/29 01:56:03;;;;;;;12.10;9.30;;;;;;;16.01;78.97;98836.92;217894;1254;140318;-70
2023/08/29 02:01:07;;;;;;;11.50;9.10;;;;;;;16.00;79.42;98849.41;218484;1258;139835;-68
2023/08/29 02:06:26;;;;;;;10.20;8.40;;;;;;;15.99;79.69;98889.58;218534;1256;139697;-69
2023/08/29 02:11:29;;;;;;;10.20;9.20;;;;;;;16.00;80.12;98904.35;218438;1254;140216;-68
2023/08/29 02:16:35;;;;;;;10.70;9.60;;;;;;;16.00;80.23;98893.98;219231;1258;140942;-69
2023/08/29 02:21:38;;;;;;;10.30;9.20;;;;;;;16.00;80.64;98914.90;217987;1254;140150;-69
2023/08/29 02:26:40;;;;;;;9.20;7.90;;;;;;;16.01;80.96;98912.52;218966;1254;140102;-69
2023/08/29 02:31:42;;;;;;;9.30;8.40;;;;;;;15.99;81.08;98906.31;217964;1257;141873;-69
2023/08/29 02:36:46;;;;;;;8.20;7.50;;;;;;;15.98;81.50;98920.13;219038;1256;140661;-69
2023/08/29 02:41:48;;;;;;;8.30;7.50;;;;;;;15.99;81.78;98915.92;219056;1255;231298;-69
2023/08/29 02:46:50;;;;;;;9.00;8.10;;;;;;;16.00;81.92;98922.69;218749;1254;139654;-70
2023/08/29 02:51:53;;;;;;;8.30;7.50;;;;;;;16.00;82.06;98927.15;220618;1258;140948;-70
2023/08/29 02:56:57;;;;;;;7.60;6.90;;;;;;;16.00;82.06;98915.91;220141;1256;141649;-71
2023/08/29 03:02:03;;;;;;;7.90;7.30;;;;;;;16.01;82.23;98899.34;220739;1254;140324;-71
2023/08/29 03:07:06;;;;;;;8.60;7.90;;;;;;;16.03;82.37;98890.02;218353;1258;140550;-71
2023/08/29 03:12:09;;;;;;;7.90;7.00;;;;;;;16.05;82.59;98887.89;217936;1257;151612;-73
2023/08/29 03:17:11;;;;;;;8.30;7.60;;;;;;;16.05;82.55;98880.27;218983;1255;141050;-72
2023/08/29 03:22:14;;;;;;;7.70;7.10;;;;;;;16.00;82.75;98870.42;219329;1255;140567;-69
2023/08/29 03:27:17;;;;;;;7.60;7.00;;;;;;;15.94;82.92;98846.81;219081;1256;140480;-69
2023/08/29 03:32:21;;;;;;;6.30;5.80;;;;;;;15.87;82.98;98816.94;218592;1258;139442;-71
2023/08/29 03:37:23;;;;;;;7.80;7.10;;;;;;;15.79;83.21;98785.76;218165;1256;140700;-71
2023/08/29 03:42:26;;;;;;;5.80;5.30;;;;;;;15.72;83.46;98784.63;218125;1254;141186;-70
2023/08/29 03:47:32;;;;;;;6.20;5.60;;;;;;;15.68;83.74;98793.66;218156;1256;139808;-69
2023/08/29 03:52:36;;;;;;;5.40;5.00;;;;;;;15.60;83.69;98792.86;217959;1258;139820;-67
2023/08/29 03:57:39;;;;;;;5.50;5.00;;;;;;;15.56;84.18;98807.48;217780;1259;140276;-69
2023/08/29 04:02:43;;;;;;;7.40;5.80;;;;;;;15.53;84.20;98802.66;218040;1257;140833;-69
2023/08/29 04:07:46;;;;;;;5.50;5.10;;;;;;;15.52;84.63;98791.33;218266;1257;140670;-69
2023/08/29 04:12:49;;;;;;;5.40;4.90;;;;;;;15.52;84.73;98767.33;218099;1258;140129;-68
2023/08/29 04:17:52;;;;;;;5.70;4.20;;;;;;;15.50;84.84;98740.33;218932;1256;141474;-69
2023/08/29 04:22:55;;;;;;;6.10;5.20;;;;;;;15.48;85.07;98728.86;218091;1257;140861;-69
2023/08/29 04:27:59;;;;;;;6.50;5.40;;;;;;;15.48;85.28;98715.98;218124;1257;139702;-70
2023/08/29 04:33:04;;;;;;;5.00;4.60;;;;;;;15.50;85.61;98705.73;218704;1256;140357;-70
2023/08/29 04:38:08;;;;;;;6.40;5.00;;;;;;;15.51;85.74;98695.68;220053;1255;139833;-69
2023/08/29 04:43:14;;;;;;;6.10;5.60;;;;;;;15.54;85.89;98696.66;218253;1258;140774;-69
2023/08/29 04:48:18;;;;;;;5.20;4.80;;;;;;;15.58;86.20;98689.35;220192;1257;139873;-68
2023/08/29 04:53:22;;;;;;;6.20;5.70;;;;;;;15.63;86.25;98681.48;218579;1256;140017;-68
2023/08/29 04:58:25;;;;;;;6.20;5.20;;;;;;;15.69;86.34;98658.77;219662;1256;139872;-69
2023/08/29 05:03:28;;;;;;;6.70;5.00;;;;;;;15.75;86.67;98675.48;220517;1255;140176;-70
2023/08/29 05:08:34;;;;;;;5.80;5.20;;;;;;;15.84;86.75;98684.06;218451;1255;140148;-69
2023/08/29 05:13:38;;;;;;;5.40;5.00;;;;;;;15.92;86.89;98690.52;218924;1254;139712;-69
2023/08/29 05:18:42;;;;;;;7.50;6.00;;;;;;;16.01;87.08;98703.98;219245;1257;139516;-68
2023/08/29 05:23:47;;;;;;;6.30;5.50;;;;;;;16.11;87.25;98700.91;218470;1254;139556;-69
2023/08/29 05:28:50;;;;;;;6.10;5.40;;;;;;;16.20;87.24;98701.00;218777;1257;139862;-70
2023/08/29 05:33:54;;;;;;;7.80;6.00;;;;;;;16.29;87.44;98697.28;217972;1255;140350;-70
2023/08/29 05:38:58;;;;;;;6.10;5.60;;;;;;;16.39;87.58;98698.99;218162;1258;140326;-67
2023/08/29 05:44:04;;;;;;;8.40;5.40;;;;;;;16.51;87.71;98684.98;218488;1257;140156;-68
2023/08/29 05:49:08;;;;;;;6.10;5.70;;;;;;;16.62;87.59;98673.65;218135;1257;141387;-68
2023/08/29 05:54:14;;;;;;;6.10;5.70;;;;;;;16.70;87.65;98672.86;218241;1256;140101;-68
2023/08/29 05:59:19;;;;;;;8.40;5.60;;;;;;;16.82;87.80;98671.63;217914;1255;139630;-68
2023/08/29 06:04:21;;;;;;;5.50;5.00;;;;;;;16.96;87.75;98668.49;218437;1254;140370;-69
2023/08/29 06:09:24;;;;;;;8.50;6.00;;;;;;;17.09;87.97;98681.23;218154;1259;139807;-70
2023/08/29 06:14:27;;;;;;;6.00;5.50;;;;;;;17.25;87.88;98693.85;217992;1254;140209;-70
2023/08/29 06:19:30;;;;;;;5.80;5.20;;;;;;;17.40;87.67;98695.89;218235;1257;140626;-69
2023/08/29 06:24:33;;;;;;;5.80;4.80;;;;;;;17.62;87.86;98693.40;218426;1254;139973;-71
2023/08/29 06:29:38;;;;;;;5.50;5.00;;;;;;;17.78;87.47;98673.11;219299;1256;140506;-69
2023/08/29 06:34:41;;;;;;;6.20;5.70;;;;;;;17.95;87.26;98668.40;220340;1256;140481;-69
2023/08/29 06:39:47;;;;;;;7.30;5.70;;;;;;;18.09;86.81;98674.02;220398;1259;140106;-73
2023/08/29 06:44:50;;;;;;;5.20;4.80;;;;;;;18.19;86.64;98683.30;220503;1256;140461;-73
2023/08/29 06:49:54;;;;;;;6.00;5.40;;;;;;;18.35;86.49;98685.45;219443;1259;140850;-69
2023/08/29 06:55:00;;;;;;;7.90;6.70;;;;;;;18.55;86.44;98690.04;218701;1254;141016;-68
2023/08/29 07:00:10;;;;;;;6.40;5.80;;;;;;;18.80;86.47;98692.45;218168;1259;139278;-67
2023/08/29 07:05:17;;;;;;;6.70;6.00;;;;;;;19.03;86.28;98689.23;219245;1259;139474;-67
2023/08/29 07:10:21;;;;;;;7.40;6.70;;;;;;;19.33;85.80;98687.06;217859;1257;139819;-67
2023/08/29 07:15:25;;;;;;;6.70;6.10;;;;;;;19.57;85.49;98695.09;219399;1255;139562;-67
2023/08/29 07:20:28;;;;;;;8.00;7.00;;;;;;;19.81;85.19;98700.33;218848;1256;140581;-68
2023/08/29 07:25:44;;;;;;;8.60;7.80;;;;;;;20.01;84.56;98687.55;217877;1257;140006;-68
2023/08/29 07:30:51;;;;;;;7.60;7.00;;;;;;;20.22;84.04;98673.27;218248;1259;139417;-69
2023/08/29 07:35:54;;;;;;;;;;;;;;;20.30;83.71;98662.58;218505;1256;140789;-69
2023/08/29 07:40:58;;;;;;;9.00;7.50;;;;;;;20.40;83.28;98672.38;218160;1259;126787;-70
2023/08/29 07:46:01;;;;;;;8.00;7.20;;;;;;;20.28;82.77;98718.40;218079;1259;141179;-68
2023/08/29 07:51:04;;;;;;;9.80;9.10;;;;;;;20.12;82.72;98722.05;218029;1258;139764;-68
2023/08/29 07:56:09;;;;;;;11.00;10.00;;;;;;;20.10;83.00;98742.92;217893;1259;140628;-69
2023/08/29 08:01:12;;;;;;;10.60;9.60;;;;;;;20.00;82.96;98750.35;218138;1257;140005;-71
2023/08/29 08:06:16;;;;;;;9.60;8.60;;;;;;;19.91;82.91;98741.70;218525;1257;139871;-68
2023/08/29 08:11:19;;;;;;;9.50;8.60;;;;;;;19.85;83.12;98748.85;219264;1257;139398;-69
2023/08/29 08:16:23;;;;;;;11.80;9.40;;;;;;;19.79;83.53;98747.77;218757;1259;140092;-66
2023/08/29 08:21:26;;;;;;;10.40;9.50;;;;;;;19.87;83.86;98705.89;218608;1259;140479;-66
2023/08/29 08:26:29;;;;;;;19.90;11.10;;;;;;;19.93;83.68;98708.13;218289;1256;139818;-69
2023/08/29 08:31:32;;;;;;;8.70;7.90;;;;;;;19.90;83.83;98721.69;218925;1256;140196;-68
2023/08/29 08:36:43;;;;;;;11.10;8.70;;;;;;;19.88;83.94;98759.27;219048;1257;140844;-69
2023/08/29 08:41:46;;;;;;;12.10;10.80;;;;;;;19.85;84.02;98756.58;219663;1254;141800;-68
2023/08/29 08:46:49;;;;;;;11.30;10.10;;;;;;;19.83;84.32;98784.02;219518;1256;139683;-69
2023/08/29 08:51:51;;;;;;;15.90;10.60;;;;;;;19.85;84.54;98792.54;218495;1258;140573;-68
2023/08/29 08:56:57;;;;;;;11.20;10.20;;;;;;;19.84;84.65;98773.95;219272;1257;140768;-68
2023/08/29 09:02:00;;;;;;;;;;;;;;;19.83;84.81;98794.13;218545;1259;140489;-69
2023/08/29 09:07:03;;;;;;;12.40;9.40;;;;;;;19.73;84.85;98800.64;218135;1257;127400;-70
2023/08/29 09:12:07;;;;;;;14.00;11.00;;;;;;;19.74;85.23;98772.55;217554;1263;143549;-70
2023/08/29 09:17:10;;;;;;;10.40;9.20;;;;;;;19.83;85.25;98766.73;217845;1267;140175;-70
2023/08/29 09:22:13;;;;;;;12.20;11.10;;;;;;;19.91;85.18;98740.45;218062;1260;141372;-70
2023/08/29 09:27:17;;;;;;;11.30;9.80;;;;;;;20.18;85.54;98729.26;219061;1259;140487;-70
2023/08/29 09:32:21;;;;;;;12.90;11.10;;;;;;;20.44;85.32;98731.92;217571;1268;140545;-70
2023/08/29 09:37:25;;;;;;;12.60;11.40;;;;;;;20.45;84.77;98740.16;217669;1257;141001;-70
2023/08/29 09:42:29;;;;;;;12.20;11.10;;;;;;;20.30;84.40;98737.23;217717;1258;140134;-69
2023/08/29 09:47:32;;;;;;;13.70;11.00;;;;;;;20.30;84.58;98678.56;217619;1257;140723;-69
2023/08/29 09:52:36;;;;;;;12.90;11.70;;;;;;;20.36;84.72;98694.14;217872;1257;140220;-68
2023/08/29 09:57:45;;;;;;;17.30;11.50;;;;;;;20.37;84.65;98750.55;218896;1257;141677;-69
2023/08/29 10:02:50;;;;;;;16.00;12.90;;;;;;;20.35;84.78;98767.71;218336;1260;140689;-70
2023/08/29 10:07:57;;;;;;;;;;;;;;;20.40;84.87;98766.27;218959;1259;140325;-68
2023/08/29 10:13:02;;;;;;;14.80;12.40;;;;;;;20.49;84.92;98777.91;218149;1258;125525;-68
2023/08/29 10:18:07;;;;;;;13.50;12.30;;;;;;;20.71;84.82;98783.03;218655;1259;141553;-68
2023/08/29 10:23:12;;;;;;;14.80;13.50;;;;;;;20.81;84.14;98805.96;218608;1254;140630;-67
2023/08/29 10:28:17;;;;;;;14.10;12.90;;;;;;;20.67;83.60;98810.70;219095;1255;141156;-68
2023/08/29 10:33:22;;;;;;;14.90;13.50;;;;;;;20.59;83.36;98812.21;218033;1257;140915;-67
2023/08/29 10:38:27;;;;;;;18.50;13.40;;;;;;;20.43;83.09;98832.35;219094;1259;140918;-68
2023/08/29 10:43:31;;;;;;;15.30;13.80;;;;;;;20.28;83.10;98840.46;218193;1255;140467;-68
2023/08/29 10:48:44;;;;;;;14.20;12.80;;;;;;;20.24;83.04;98844.46;218512;1256;141750;-69
2023/08/29 10:53:51;;;;;;;14.60;12.90;;;;;;;20.34;83.38;98841.68;218267;1260;717407;-69
2023/08/29 10:58:55;;;;;;;16.50;14.90;;;;;;;20.43;83.31;98835.30;219234;1255;141269;-67
2023/08/29 11:04:11;;;;;;;18.50;15.80;;;;;;;20.53;83.33;98833.25;218946;1257;140747;-67
2023/08/29 11:09:23;;;;;;;14.50;12.00;;;;;;;20.65;82.82;98834.22;217879;1260;140355;-67
2023/08/29 11:14:46;;;;;;;16.10;14.50;;;;;;;20.62;82.87;98838.49;218609;1257;140797;-67
2023/08/29 11:19:55;;;;;;;17.30;14.00;;;;;;;20.79;82.84;98836.59;217686;1260;140475;-65
2023/08/29 11:24:59;;;;;;;15.30;13.50;;;;;;;20.82;82.52;98841.90;218507;1255;140883;-66
2023/08/29 11:30:03;;;;;;;14.00;12.70;;;;;;;20.93;82.49;98848.95;217781;1259;140408;-67
2023/08/29 11:35:32;;;;;;;15.90;14.00;;;;;;;20.92;82.05;98857.84;217849;1259;139930;-69
2023/08/29 11:40:37;;;;;;;13.60;12.10;;;;;;;20.88;81.94;98847.63;218034;1254;139956;-67
2023/08/29 11:45:49;;;;;;;29.10;16.00;;;;;;;20.81;81.57;98847.20;218170;1257;141188;-68
2023/08/29 11:51:03;;;;;;;14.00;12.70;;;;;;;20.69;81.42;98840.74;217919;1257;140985;-68
2023/08/29 11:56:11;;;;;;;15.10;13.30;;;;;;;20.66;81.70;98834.48;218325;1256;140517;-69
2023/08/29 12:01:15;;;;;;;15.30;13.80;;;;;;;20.71;81.64;98843.30;218429;1257;141086;-68
2023/08/29 12:06:20;;;;;;;20.30;18.20;;;;;;;20.67;81.45;98844.77;218722;1254;140863;-68
2023/08/29 12:11:23;;;;;;;21.20;19.20;;;;;;;20.67;81.59;98842.73;217922;1254;140423;-71
2023/08/29 12:16:28;;;;;;;24.80;18.50;;;;;;;20.63;81.11;98845.05;218769;1259;140490;-68
2023/08/29 12:21:32;;;;;;;21.00;18.10;;;;;;;20.54;80.93;98839.84;218769;1257;141322;-67
2023/08/29 12:26:34;;;;;;;21.60;19.20;;;;;;;20.51;80.91;98845.23;218601;1254;140399;-67
2023/08/29 12:31:38;;;;;;;24.40;22.10;;;;;;;20.67;81.55;98840.42;219049;1257;151672;-67
2023/08/29 12:36:42;;;;;;;22.30;20.00;;;;;;;20.90;81.58;98839.42;219202;1256;142108;-67
2023/08/29 12:41:48;;;;;;;25.10;20.00;;;;;;;21.01;81.13;98844.23;218795;1257;140493;-69
2023/08/29 12:46:52;;;;;;;24.90;22.20;;;;;;;21.06;80.90;98848.52;218895;1257;140308;-69
2023/08/29 12:51:55;;;;;;;24.20;21.70;;;;;;;21.04;80.42;98854.59;218318;1254;140742;-68
2023/08/29 12:56:59;;;;;;;25.10;22.50;;;;;;;20.98;80.57;98849.06;218203;1254;141571;-70
2023/08/29 13:02:05;;;;;;;25.60;23.20;;;;;;;21.02;80.92;98826.33;217737;1255;141050;-70
2023/08/29 13:07:09;;;;;;;23.80;21.30;;;;;;;21.18;81.21;98825.19;218058;1259;141348;-69
2023/08/29 13:12:12;;;;;;;24.80;22.30;;;;;;;21.47;80.87;98823.77;218061;1256;141999;-69
2023/08/29 13:17:16;;;;;;;24.10;21.60;;;;;;;21.72;80.72;98819.23;218302;1256;140279;-68
2023/08/29 13:22:19;;;;;;;22.60;20.30;;;;;;;21.96;79.96;98831.52;218380;1257;140340;-69
2023/08/29 13:27:27;;;;;;;22.10;20.00;;;;;;;22.02;79.61;98833.70;218497;1254;140915;-69
2023/08/29 13:32:36;;;;;;;21.60;19.50;;;;;;;22.14;79.51;98828.89;218587;1256;140586;-70
2023/08/29 13:37:39;;;;;;;19.50;17.60;;;;;;;22.17;78.40;98824.33;218177;1257;140498;-68
2023/08/29 13:42:42;;;;;;;22.90;20.70;;;;;;;21.85;78.10;98829.58;217949;1259;140398;-69
2023/08/29 13:47:47;;;;;;;22.30;19.80;;;;;;;21.65;78.40;98818.20;217923;1257;141370;-68
2023/08/29 13:52:55;;;;;;;20.90;18.70;;;;;;;21.60;78.82;98811.87;218496;1256;140003;-68
2023/08/29 13:58:00;;;;;;;19.80;17.70;;;;;;;21.71;79.52;98826.87;217756;1258;140801;-69
2023/08/29 14:03:04;;;;;;;24.30;18.50;;;;;;;21.67;78.89;98849.72;218912;1258;140469;-70
2023/08/29 14:08:11;;;;;;;23.00;20.40;;;;;;;21.41;78.60;98865.05;218250;1255;140299;-71
2023/08/29 14:13:16;;;;;;;;;;;;;;;21.21;79.15;98871.90;217944;1257;140911;-70
2023/08/29 14:18:19;;;;;;;28.20;18.10;;;;;;;20.98;79.17;98879.46;218293;1256;127630;-68
2023/08/29 14:23:27;;;;;;;23.30;17.60;;;;;;;20.81;79.75;98877.98;218132;1257;140646;-68
2023/08/29 14:28:30;;;;;;;20.00;17.60;;;;;;;20.72;80.12;98878.02;219661;1256;141414;-72
2023/08/29 14:33:35;;;;;;;21.20;18.60;;;;;;;20.66;80.58;98860.27;218744;1256;140248;-69
2023/08/29 14:38:42;;;;;;;18.60;16.50;;;;;;;20.63;80.97;98844.80;218130;1256;141100;-69
2023/08/29 14:43:48;;;;;;;28.30;18.80;;;;;;;20.57;81.14;98835.25;218926;1256;140112;-70
2023/08/29 14:48:53;;;;;;;25.80;20.20;;;;;;;20.53;81.42;98819.17;217890;1257;141956;-69
2023/08/29 14:54:03;;;;;;;26.40;21.40;;;;;;;20.58;82.16;98803.91;217730;1256;140304;-65
2023/08/29 14:59:07;;;;;;;22.80;20.30;;;;;;;20.71;82.60;98806.02;217956;1258;140466;-68
2023/08/29 15:04:14;;;;;;;21.30;19.20;;;;;;;20.82;82.26;98811.48;218363;1254;141123;-69
2023/08/29 15:09:23;;;;;;;19.80;17.90;;;;;;;20.82;81.97;98830.73;218036;1259;141015;-69
2023/08/29 15:14:30;;;;;;;25.50;21.20;;;;;;;20.69;82.03;98815.28;218193;1257;140107;-68
2023/08/29 15:19:38;;;;;;;23.70;21.40;;;;;;;20.66;82.54;98809.59;218532;1258;140500;-67
2023/08/29 15:24:43;;;;;;;21.80;19.50;;;;;;;20.61;82.79;98819.95;217709;1259;141231;-70
2023/08/29 15:29:49;;;;;;;25.50;20.50;;;;;;;20.58;83.05;98811.08;218280;1259;141519;-70
2023/08/29 15:34:51;;;;;;;22.20;18.60;;;;;;;20.57;83.18;98815.31;218483;1256;140389;-69
2023/08/29 15:39:56;;;;;;;24.10;18.70;;;;;;;20.45;83.27;98823.95;218040;1254;141401;-71
2023/08/29 15:45:00;;;;;;;29.10;21.10;;;;;;;20.40;83.79;98814.54;217904;1259;141163;-69
2023/08/29 15:50:06;;;;;;;35.00;20.10;;;;;;;20.37;83.90;98811.60;218411;1256;141368;-69
2023/08/29 15:55:15;;;;;;;31.70;20.40;;;;;;;20.32;84.12;98827.21;218131;1258;140854;-69
2023/08/29 16:00:21;;;;;;;23.70;20.40;;;;;;;20.22;84.33;98854.38;218085;1256;141983;-69
2023/08/29 16:05:35;;;;;;;22.80;20.40;;;;;;;20.15;84.72;98853.06;217896;1259;141580;-67
2023/08/29 16:10:40;;;;;;;26.40;20.30;;;;;;;20.16;85.18;98832.55;219765;1256;139747;-69
2023/08/29 16:15:53;;;;;;;26.20;23.40;;;;;;;20.17;85.52;98818.13;218508;1256;140970;-70
2023/08/29 16:21:03;;;;;;;21.30;18.60;;;;;;;20.15;85.51;98825.17;218209;1254;140302;-69
2023/08/29 16:26:24;;;;;;;21.30;18.90;;;;;;;20.13;85.82;98823.93;219982;1256;140446;-70
2023/08/29 16:31:28;;;;;;;21.50;19.30;;;;;;;20.10;85.74;98855.10;219166;1254;140248;-72
2023/08/29 16:36:32;;;;;;;26.90;17.50;;;;;;;20.02;85.49;98902.33;219226;1256;142933;-70
2023/08/29 16:41:39;;;;;;;21.30;18.20;;;;;;;19.90;85.42;98898.18;218379;1256;140683;-71
2023/08/29 16:46:42;;;;;;;19.40;17.40;;;;;;;19.89;85.79;98874.35;218373;1258;141886;-69
2023/08/29 16:51:47;;;;;;;20.10;17.20;;;;;;;19.89;85.84;98867.39;218772;1254;140446;-69
2023/08/29 16:56:54;;;;;;;33.10;18.20;;;;;;;19.87;85.84;98835.81;218621;1256;140778;-69
2023/08/29 17:01:59;;;;;;;18.00;16.10;;;;;;;19.82;85.81;98790.31;217767;1259;141898;-69
2023/08/29 17:07:06;;;;;;;20.10;17.30;;;;;;;19.79;85.91;98784.98;218167;1256;140118;-68
2023/08/29 17:12:17;;;;;;;19.40;17.10;;;;;;;19.74;85.94;98784.33;218466;1257;140971;-68
2023/08/29 17:17:23;;;;;;;20.90;16.60;;;;;;;19.68;85.95;98767.80;218450;1257;141480;-67
2023/08/29 17:22:30;;;;;;;18.40;16.50;;;;;;;19.56;85.79;98798.77;218593;1256;140736;-67
2023/08/29 17:27:35;;;;;;;19.00;16.90;;;;;;;19.35;85.71;98814.73;218139;1256;140232;-67
2023/08/29 17:32:44;;;;;;;19.00;16.00;;;;;;;19.23;85.99;98818.36;218430;1257;140163;-67
2023/08/29 17:37:55;;;;;;;17.20;15.20;;;;;;;19.13;86.32;98819.02;218124;1256;140595;-68
2023/08/29 17:43:02;;;;;;;18.50;15.50;;;;;;;19.07;86.62;98831.88;217833;1257;140024;-66
2023/08/29 17:48:12;;;;;;;21.30;17.40;;;;;;;19.02;86.88;98815.61;218702;1255;142387;-66
2023/08/29 17:53:17;;;;;;;17.30;14.90;;;;;;;18.97;86.93;98822.91;219638;1257;140991;-67
2023/08/29 17:58:22;;;;;;;18.40;15.20;;;;;;;18.90;87.21;98815.20;218153;1255;140927;-68
2023/08/29 18:03:28;;;;;;;15.70;14.10;;;;;;;18.88;87.38;98828.60;218378;1259;141776;-68
2023/08/29 18:08:50;;;;;;;20.20;16.10;;;;;;;18.81;87.55;98825.52;218827;1256;237143;-67
2023/08/29 18:13:55;;;;;;;17.50;14.90;;;;;;;18.80;87.70;98829.06;218264;1256;141271;-69
2023/08/29 18:19:01;;;;;;;26.10;16.20;;;;;;;18.78;87.68;98824.52;218178;1254;141248;-69
2023/08/29 18:24:16;;;;;;;22.80;17.20;;;;;;;18.71;87.41;98835.44;218817;1254;141122;-69
2023/08/29 18:29:22;;;;;;;19.30;15.90;;;;;;;18.61;87.13;98844.24;218287;1255;140759;-68
2023/08/29 18:34:27;;;;;;;17.90;14.40;;;;;;;18.54;87.28;98843.22;218738;1257;140311;-69
2023/08/29 18:39:31;;;;;;;24.60;16.70;;;;;;;18.48;87.68;98824.77;218142;1257;140324;-68
2023/08/29 18:44:36;;;;;;;28.10;16.80;;;;;;;18.47;87.91;98809.36;219404;1256;141742;-73
2023/08/29 18:49:48;;;;;;;16.80;15.10;;;;;;;18.45;88.05;98817.45;218193;1256;140611;-71
2023/08/29 18:54:57;;;;;;;18.40;16.40;;;;;;;18.42;87.86;98823.58;218927;1257;141384;-71
2023/08/29 19:00:23;;;;;;;18.70;15.60;;;;;;;18.37;88.40;98821.04;218174;1256;141142;-69
2023/08/29 19:05:31;;;;;;;22.40;16.50;;;;;;;18.37;88.60;98794.50;218422;1255;141461;-70
2023/08/29 19:10:39;;;;;;;21.30;17.20;;;;;;;18.36;88.86;98777.52;217910;1254;141271;-72
2023/08/29 19:15:51;;;;;;;19.80;15.50;;;;;;;18.34;88.77;98757.05;218208;1257;140918;-70
2023/08/29 19:20:53;;;;;;;15.90;14.30;;;;;;;18.28;88.46;98758.01;218259;1259;141607;-71
2023/08/29 19:26:03;;;;;;;23.20;15.00;;;;;;;18.20;88.27;98759.50;218394;1256;140999;-69
2023/08/29 19:31:06;;;;;;;22.00;15.10;;;;;;;18.10;88.26;98755.52;218016;1259;140562;-70
2023/08/29 19:36:16;;;;;;;24.60;14.50;;;;;;;18.00;88.03;98757.79;217972;1257;141006;-70
2023/08/29 19:41:23;;;;;;;22.40;16.50;;;;;;;17.89;88.44;98754.92;218129;1257;140231;-71
2023/08/29 19:46:26;;;;;;;60.50;20.70;;;;;;;17.90;89.37;98753.56;218028;1256;141114;-71
2023/08/29 19:51:30;;;;;;;22.00;17.70;;;;;;;17.96;89.70;98754.55;218407;1255;141615;-70
2023/08/29 19:56:36;;;;;;;19.70;17.40;;;;;;;17.98;89.64;98767.83;217956;1257;140010;-72
2023/08/29 20:01:41;;;;;;;32.60;18.70;;;;;;;17.93;89.53;98794.25;218962;1256;140159;-72
2023/08/29 20:06:44;;;;;;;19.60;17.50;;;;;;;17.93;89.89;98815.88;218949;1259;140568;-71
2023/08/29 20:11:47;;;;;;;27.00;18.90;;;;;;;17.95;90.19;98812.22;218783;1257;140542;-71
2023/08/29 20:16:52;;;;;;;27.30;21.50;;;;;;;17.97;90.57;98802.02;219125;1256;140107;-70
2023/08/29 20:21:57;;;;;;;24.90;17.70;;;;;;;18.01;90.70;98793.30;219095;1257;140818;-68
2023/08/29 20:27:02;;;;;;;22.20;17.70;;;;;;;18.07;90.75;98801.35;218507;1257;140596;-69
2023/08/29 20:32:11;;;;;;;25.20;21.00;;;;;;;18.09;90.70;98825.35;218862;1257;140292;-69
2023/08/29 20:37:29;;;;;;;27.30;19.10;;;;;;;18.11;90.90;98831.23;218098;1257;140770;-70
2023/08/29 20:42:49;;;;;;;24.70;19.50;;;;;;;18.14;91.06;98826.00;218056;1254;140188;-69
2023/08/29 20:48:00;;;;;;;27.10;20.90;;;;;;;18.16;91.14;98826.33;217811;1259;141267;-69
2023/08/29 20:53:14;;;;;;;25.60;21.80;;;;;;;18.16;91.19;98819.64;219295;1256;140082;-68
2023/08/29 20:58:20;;;;;;;28.30;23.40;;;;;;;18.17;91.07;98825.33;218459;1257;141213;-69
2023/08/29 21:03:22;;;;;;;28.60;22.30;;;;;;;18.17;91.07;98818.75;217924;1256;140354;-70
2023/08/29 21:08:26;;;;;;;28.00;22.30;;;;;;;18.16;91.19;98813.00;218058;1256;140173;-68
2023/08/29 21:13:30;;;;;;;28.80;22.20;;;;;;;18.15;91.26;98801.64;218103;1257;140179;-69
2023/08/29 21:18:33;;;;;;;31.50;22.30;;;;;;;18.14;91.25;98787.20;217894;1255;140091;-69
2023/08/29 21:23:36;;;;;;;32.20;23.60;;;;;;;18.10;91.09;98787.73;218447;1257;140851;-71
2023/08/29 21:28:41;;;;;;;32.10;24.00;;;;;;;18.07;91.26;98785.00;218074;1259;140712;-68
2023/08/29 21:33:44;;;;;;;29.30;24.10;;;;;;;18.09;91.30;98776.64;218681;1256;140422;-69
2023/08/29 21:38:47;;;;;;;29.60;23.60;;;;;;;18.08;91.29;98755.95;217906;1259;141005;-69
2023/08/29 21:43:50;;;;;;;38.20;24.30;;;;;;;18.06;91.37;98753.63;218247;1258;141174;-70
2023/08/29 21:48:54;;;;;;;36.20;27.00;;;;;;;18.05;91.50;98759.20;219094;1256;140445;-69
2023/08/29 21:54:00;;;;;;;35.00;25.90;;;;;;;18.02;91.43;98758.98;218148;1258;140691;-70
2023/08/29 21:59:05;;;;;;;38.90;27.50;;;;;;;18.01;91.54;98763.55;218506;1256;141921;-68
2023/08/29 22:04:09;;;;;;;40.60;28.80;;;;;;;17.99;91.76;98774.32;218623;1256;140786;-68
2023/08/29 22:09:13;;;;;;;38.80;27.50;;;;;;;18.00;91.80;98767.72;218117;1257;140976;-73
2023/08/29 22:14:17;;;;;;;35.90;25.80;;;;;;;18.00;91.81;98761.20;217963;1255;139764;-70
2023/08/29 22:19:21;;;;;;;25.30;21.20;;;;;;;17.95;91.63;98773.33;219611;1257;141333;-71
2023/08/29 22:24:24;;;;;;;24.00;18.70;;;;;;;17.91;91.61;98789.66;218117;1259;140637;-70
2023/08/29 22:29:30;;;;;;;22.20;16.40;;;;;;;17.88;91.43;98792.15;218494;1256;140580;-68
2023/08/29 22:34:36;;;;;;;25.00;20.50;;;;;;;17.83;91.33;98781.64;218856;1257;140737;-68
2023/08/29 22:39:40;;;;;;;22.50;17.30;;;;;;;17.79;91.35;98777.79;218662;1256;140390;-68
2023/08/29 22:44:44;;;;;;;25.00;18.70;;;;;;;17.76;91.49;98775.64;218365;1259;140784;-68
2023/08/29 22:49:47;;;;;;;26.70;18.00;;;;;;;17.72;91.25;98779.04;219192;1257;140340;-69
2023/08/29 22:54:51;;;;;;;23.50;18.30;;;;;;;17.67;91.16;98775.56;217073;1257;1094926;-71
2023/08/29 22:59:58;;;;;;;29.90;21.20;;;;;;;17.61;91.00;98805.46;217797;1257;141181;-69
2023/08/29 23:05:06;;;;;;;30.70;20.80;;;;;;;17.53;91.05;98845.83;219009;1259;141270;-69